weather

Current weather and weather forecast of LSZH


METAR

LSZH 251550Z 20007KT 130V290 8000 3000E SHRA FEW008 SCT016TCU FEW025CB BKN038 08/07 Q1003 TEMPO NSW
AirportLSZH
AirportnameZurich
TimeFriday, September 25th, 15:50 UTC
WindSSW(200°) at 7kt
VAR-WindVariing between SE(130°) and WNW(290°)
Visibility3000m/2sm
Precipitationrain showers
Cloudspartly cloudy at 800ft,
scattered clouds at 1600ft,
partly cloudy at 2500ft,
mostly cloudy at 3800ft
Temperature8°C/46°F
Dewpoint7°C/45°F
RelativeHumidity93%
Altimeter1003mb/29.62inhg
Forecast
Typetemporary
Precipitationnil significant weather
© decoder by M.Welten

TAF

TAF LSZH 251425Z 2515/2621 21006KT 9999 FEW025 SCT040 BKN050 TX10/2515Z TN06/2605Z TX10/2614Z TEMPO 2515/2621 SHRA FEW040TCU TEMPO 2515/2619 27013G28KT
ForecasttypeTAF
AirportLSZH
AirportnameZurich
TimeFriday, September 25th, 14:25 UTC
Forecast
Validity25th 15:00 UTC - 26th 21:00 UTC
WindSSW(210°) at 6kt
Visibilitygreater than 10km/6sm
Cloudspartly cloudy at 2500ft,
scattered clouds at 4000ft,
mostly cloudy at 5000ft
Temperaturesmax-temperature of 10°C/50°F at 15:00 UTC on the 25th.
min-temperature of 6°C/43°F at 05:00 UTC on the 26th.
max-temperature of 10°C/50°F at 14:00 UTC on the 26th.
 
Typetemporary
Validity25th 15:00 UTC - 26th 21:00 UTC
Precipitationrain showers
Cloudspartly cloudy at 4000ft
 
Typetemporary
Validity25th 15:00 UTC - 26th 19:00 UTC
WindW(270°) at 13kt, gusting 28kt
© decoder by M.Welten